Time;durP1;ratioP1;P1;durP2;ratioP2;P2;SDS_P1;SDS_P2;PMS_P1;PMS_P2;Temp;Humidity;BMP_temperature;BMP_pressure;BME280_temperature;BME280_humidity;BME280_pressure;Samples;Min_cycle;Max_cycle;Signal;HPM_P1;HPM_P2
2022/02/14 00:00:31;;;;;;;;;;;-2.40;99.90;;;;;;4191876;28;19935;-58
2022/02/14 00:02:32;;;;;;;;;;;-2.40;99.90;;;;;;4187912;28;19974;-58
2022/02/14 00:04:33;;;;;;;;;;;-2.40;99.90;;;;;;4192015;28;19954;-55
2022/02/14 00:06:34;;;;;;;;;;;-2.40;99.90;;;;;;4192101;28;20417;-56
2022/02/14 00:08:35;;;;;;;;;;;-2.40;99.90;;;;;;4191799;28;19920;-62
2022/02/14 00:10:36;;;;;;;;;;;-2.40;99.90;;;;;;4190507;28;20022;-59
2022/02/14 00:12:41;;;;;;;;;;;-2.40;99.90;;;;;;4190013;28;19916;-56
2022/02/14 00:14:42;;;;;;;;;;;-2.50;99.90;;;;;;4192632;28;20349;-56
2022/02/14 00:16:45;;;;;;;;;;;-2.40;99.90;;;;;;4191229;28;19962;-58
2022/02/14 00:18:46;;;;;;;;;;;-2.50;99.90;;;;;;4178117;28;19925;-61
2022/02/14 00:20:46;;;;;;;;;;;-2.50;99.90;;;;;;4180093;28;19975;-60
2022/02/14 00:22:48;;;;;;;;;;;-2.50;99.90;;;;;;4175813;28;20380;-60
2022/02/14 00:24:49;;;;;;;;;;;-2.50;99.90;;;;;;4176068;28;19971;-58
2022/02/14 00:26:53;;;;;;;;;;;-2.50;99.90;;;;;;4175427;28;20361;-56
2022/02/14 00:28:54;;;;;;;;;;;-2.60;99.90;;;;;;4188666;28;19960;-57
2022/02/14 00:30:55;;;;;;;;;;;-2.60;99.90;;;;;;4189476;28;20034;-63
2022/02/14 00:32:56;;;;;;;;;;;-2.60;99.90;;;;;;4178053;28;20296;-60
2022/02/14 00:34:56;;;;;;;;;;;-2.60;99.90;;;;;;4182121;28;19917;-57
2022/02/14 00:36:57;;;;;;;;;;;-2.60;99.90;;;;;;4192019;28;19916;-69
2022/02/14 00:38:58;;;;;;;;;;;-2.60;99.90;;;;;;4180019;28;20015;-57
2022/02/14 00:41:00;;;;;;;;;;;-2.70;99.90;;;;;;4189397;28;19927;-59
2022/02/14 00:43:02;;;;;;;;;;;-2.70;99.90;;;;;;4174655;28;19913;-61
2022/02/14 00:45:03;;;;;;;;;;;-2.70;99.90;;;;;;4175685;28;19970;-58
2022/02/14 00:47:04;;;;;;;;;;;-2.70;99.90;;;;;;4174583;28;19970;-64
2022/02/14 00:49:05;;;;;;;;;;;-2.60;99.90;;;;;;4175378;28;19916;-68
2022/02/14 00:51:06;;;;;;;;;;;-2.70;99.90;;;;;;4191229;28;19920;-57
2022/02/14 00:53:08;;;;;;;;;;;-2.70;99.90;;;;;;4190818;28;19913;-61
2022/02/14 00:55:09;;;;;;;;;;;-2.70;99.90;;;;;;4174184;28;20615;-64
2022/02/14 00:57:10;;;;;;;;;;;-2.70;99.90;;;;;;4175964;28;19913;-57
2022/02/14 00:59:11;;;;;;;;;;;-2.80;99.90;;;;;;4175501;28;20347;-53
2022/02/14 01:01:12;;;;;;;;;;;-2.80;99.90;;;;;;4181797;28;19912;-64
2022/02/14 01:03:13;;;;;;;;;;;-2.80;99.90;;;;;;4181354;28;19909;-55
2022/02/14 01:05:15;;;;;;;;;;;-2.80;99.90;;;;;;4174680;28;19966;-59
2022/02/14 01:07:16;;;;;;;;;;;-2.70;99.90;;;;;;4175042;28;20455;-58
2022/02/14 01:09:17;;;;;;;;;;;-2.70;99.90;;;;;;4175313;28;19913;-65
2022/02/14 01:11:18;;;;;;;;;;;-2.70;99.90;;;;;;4175073;28;20460;-54
2022/02/14 01:13:19;;;;;;;;;;;-2.70;99.90;;;;;;4175047;28;19952;-60
2022/02/14 01:15:20;;;;;;;;;;;-2.70;99.90;;;;;;4175966;28;19951;-57
2022/02/14 01:17:21;;;;;;;;;;;-2.70;99.90;;;;;;4174241;28;19909;-54
2022/02/14 01:19:22;;;;;;;;;;;-2.80;99.90;;;;;;4174625;28;19962;-57
2022/02/14 01:21:23;;;;;;;;;;;-2.80;99.90;;;;;;4190115;28;20373;-53
2022/02/14 01:23:24;;;;;;;;;;;-2.80;99.90;;;;;;4174807;28;19940;-67
2022/02/14 01:25:25;;;;;;;;;;;-2.90;99.90;;;;;;4174163;28;19956;-59
2022/02/14 01:27:26;;;;;;;;;;;-2.90;99.90;;;;;;4175778;28;19917;-52
2022/02/14 01:29:26;;;;;;;;;;;-2.90;99.90;;;;;;4174934;28;20262;-52
2022/02/14 01:31:27;;;;;;;;;;;-2.90;99.90;;;;;;4176457;28;20016;-53
2022/02/14 01:33:28;;;;;;;;;;;-2.90;99.90;;;;;;4190786;28;19962;-53
2022/02/14 01:35:29;;;;;;;;;;;-2.90;99.90;;;;;;4189602;28;19916;-53
2022/02/14 01:37:32;;;;;;;;;;;-3.00;99.90;;;;;;4190469;28;20276;-57
2022/02/14 01:39:33;;;;;;;;;;;-3.10;99.90;;;;;;4190138;28;19958;-53
2022/02/14 01:41:34;;;;;;;;;;;-3.10;99.90;;;;;;4187090;28;20011;-56
2022/02/14 01:43:35;;;;;;;;;;;-3.20;99.90;;;;;;4173567;28;19967;-54
2022/02/14 01:45:36;;;;;;;;;;;-3.20;99.90;;;;;;4174930;28;19913;-49
2022/02/14 01:47:37;;;;;;;;;;;-3.20;99.90;;;;;;4173839;28;20397;-55
2022/02/14 01:49:39;;;;;;;;;;;-3.20;99.90;;;;;;4173927;28;19943;-62
2022/02/14 01:51:40;;;;;;;;;;;-3.20;99.90;;;;;;4175125;28;20336;-51
2022/02/14 01:53:41;;;;;;;;;;;-3.20;99.90;;;;;;4179022;28;19916;-58
2022/02/14 01:55:42;;;;;;;;;;;-3.20;99.90;;;;;;4180067;28;19916;-59
2022/02/14 01:57:43;;;;;;;;;;;-3.10;99.90;;;;;;4179545;28;20329;-54
2022/02/14 01:59:44;;;;;;;;;;;-3.10;99.90;;;;;;4184593;28;20021;-53
2022/02/14 02:01:45;;;;;;;;;;;-3.10;99.90;;;;;;4177026;28;19913;-63
2022/02/14 02:03:48;;;;;;;;;;;-3.10;99.90;;;;;;4173768;28;20564;-60
2022/02/14 02:05:49;;;;;;;;;;;-3.00;99.90;;;;;;4174518;28;19917;-56
2022/02/14 02:07:51;;;;;;;;;;;-3.10;99.90;;;;;;4172816;28;19986;-58
2022/02/14 02:09:52;;;;;;;;;;;-3.10;99.90;;;;;;4187015;28;19916;-59
2022/02/14 02:14:12;;;;;;;;;;;-3.10;99.90;;;;;;4190005;28;19990;-55
2022/02/14 02:16:14;;;;;;;;;;;-3.20;99.90;;;;;;4188332;28;20323;-58
2022/02/14 02:18:15;;;;;;;;;;;-3.20;99.90;;;;;;4188230;28;19924;-53
2022/02/14 02:20:16;;;;;;;;;;;-3.20;99.90;;;;;;4189954;28;20442;-65
2022/02/14 02:22:17;;;;;;;;;;;-3.20;99.90;;;;;;4189236;28;20434;-53
2022/02/14 02:24:19;;;;;;;;;;;-3.30;99.90;;;;;;4175715;28;19917;-54
2022/02/14 02:26:20;;;;;;;;;;;-3.30;99.90;;;;;;4178594;28;19962;-58
2022/02/14 02:28:21;;;;;;;;;;;-3.30;99.90;;;;;;4188724;28;19913;-64
2022/02/14 02:30:22;;;;;;;;;;;-3.30;99.90;;;;;;4189485;28;19977;-59
2022/02/14 02:32:24;;;;;;;;;;;-3.20;99.90;;;;;;4189508;28;19916;-56
2022/02/14 02:34:25;;;;;;;;;;;-3.20;99.90;;;;;;4183771;28;19917;-64
2022/02/14 02:36:26;;;;;;;;;;;-3.20;99.90;;;;;;4172988;28;19920;-55
2022/02/14 02:38:27;;;;;;;;;;;-3.30;99.90;;;;;;4173089;28;20018;-60
2022/02/14 02:40:28;;;;;;;;;;;-3.30;99.90;;;;;;4181102;28;19916;-56
2022/02/14 02:42:29;;;;;;;;;;;-3.40;99.90;;;;;;4187700;28;19916;-60
2022/02/14 02:44:30;;;;;;;;;;;-3.40;99.90;;;;;;4187296;28;19912;-57
2022/02/14 02:46:31;;;;;;;;;;;-3.40;99.90;;;;;;4172843;28;20258;-62
2022/02/14 02:48:32;;;;;;;;;;;-3.50;99.90;;;;;;4172331;28;19913;-57
2022/02/14 02:50:33;;;;;;;;;;;-3.50;99.90;;;;;;4173245;28;19962;-56
2022/02/14 02:52:34;;;;;;;;;;;-3.50;99.90;;;;;;4188272;28;19916;-68
2022/02/14 02:54:35;;;;;;;;;;;-3.50;99.90;;;;;;4189840;28;20542;-57
2022/02/14 02:56:37;;;;;;;;;;;-3.40;99.90;;;;;;4188694;28;19966;-63
2022/02/14 02:58:38;;;;;;;;;;;-3.40;99.90;;;;;;4189301;28;19985;-55
2022/02/14 03:00:39;;;;;;;;;;;-3.40;99.90;;;;;;4187392;28;19956;-60
2022/02/14 03:02:40;;;;;;;;;;;-3.50;99.90;;;;;;4176410;28;19916;-62
2022/02/14 03:04:41;;;;;;;;;;;-3.50;99.90;;;;;;4171856;28;20376;-60
2022/02/14 03:06:42;;;;;;;;;;;-3.60;99.90;;;;;;4173699;28;20412;-67
2022/02/14 03:08:43;;;;;;;;;;;-3.60;99.90;;;;;;4156475;28;20008;-58
2022/02/14 03:10:45;;;;;;;;;;;-3.60;99.90;;;;;;4172266;28;20239;-66
2022/02/14 03:12:46;;;;;;;;;;;-3.70;99.90;;;;;;4173891;28;19967;-67
2022/02/14 03:14:47;;;;;;;;;;;-3.70;99.90;;;;;;4173347;28;19928;-60
2022/02/14 03:16:48;;;;;;;;;;;-3.70;99.90;;;;;;4172654;28;20714;-57
2022/02/14 03:18:49;;;;;;;;;;;-3.80;99.90;;;;;;4172153;28;19987;-63
2022/02/14 03:20:50;;;;;;;;;;;-3.80;99.90;;;;;;4184095;28;19954;-71
2022/02/14 03:22:51;;;;;;;;;;;-3.80;99.90;;;;;;4188263;28;19931;-56
2022/02/14 03:24:52;;;;;;;;;;;-3.80;99.90;;;;;;4189769;28;19912;-61
2022/02/14 03:26:52;;;;;;;;;;;-3.80;99.90;;;;;;4187330;28;19920;-56
2022/02/14 03:28:54;;;;;;;;;;;-3.80;99.90;;;;;;4183639;28;19917;-56
2022/02/14 03:30:55;;;;;;;;;;;-3.80;99.90;;;;;;4173317;28;20405;-60
2022/02/14 03:32:56;;;;;;;;;;;-3.70;99.90;;;;;;4173081;28;19955;-56
2022/02/14 03:34:57;;;;;;;;;;;-3.70;99.90;;;;;;4172509;28;20448;-68
2022/02/14 03:36:58;;;;;;;;;;;-3.70;99.90;;;;;;4154521;28;19917;-61
2022/02/14 03:38:59;;;;;;;;;;;-3.70;99.90;;;;;;4181268;28;19947;-63
2022/02/14 03:41:00;;;;;;;;;;;-3.60;99.90;;;;;;4182876;28;19917;-52
2022/02/14 03:43:01;;;;;;;;;;;-3.60;99.90;;;;;;4172788;28;20036;-54
2022/02/14 03:45:05;;;;;;;;;;;-3.60;99.90;;;;;;4172050;28;19987;-53
2022/02/14 03:47:05;;;;;;;;;;;-3.60;99.90;;;;;;4173363;28;20345;-55
2022/02/14 03:49:07;;;;;;;;;;;-3.60;99.90;;;;;;4171529;28;19924;-61
2022/02/14 03:51:08;;;;;;;;;;;-3.70;99.90;;;;;;4176414;28;19977;-61
2022/02/14 03:53:09;;;;;;;;;;;-3.70;99.90;;;;;;4176878;28;19940;-53
2022/02/14 03:55:11;;;;;;;;;;;-3.80;99.90;;;;;;4180583;28;20054;-54
2022/02/14 03:57:12;;;;;;;;;;;-3.80;99.90;;;;;;4188461;28;19916;-52
2022/02/14 03:59:14;;;;;;;;;;;-3.80;99.90;;;;;;4188830;28;19925;-63
2022/02/14 04:01:15;;;;;;;;;;;-4.00;99.90;;;;;;4179803;28;20435;-50
2022/02/14 04:03:16;;;;;;;;;;;-4.10;99.90;;;;;;4172273;28;19917;-70
2022/02/14 04:05:18;;;;;;;;;;;-4.10;99.90;;;;;;4172482;28;20464;-58
2022/02/14 04:07:18;;;;;;;;;;;-4.20;99.90;;;;;;4188750;28;20319;-61
2022/02/14 04:09:19;;;;;;;;;;;-4.20;99.90;;;;;;4188422;28;20019;-51
2022/02/14 04:11:20;;;;;;;;;;;-4.20;99.90;;;;;;4187025;28;19916;-62
2022/02/14 04:13:21;;;;;;;;;;;-4.20;99.90;;;;;;4182030;28;20717;-55
2022/02/14 04:15:22;;;;;;;;;;;-4.30;99.90;;;;;;4171837;28;20863;-60
2022/02/14 04:17:25;;;;;;;;;;;-4.30;99.90;;;;;;4177555;28;19917;-57
2022/02/14 04:19:26;;;;;;;;;;;-4.30;99.90;;;;;;4188637;28;19920;-65
2022/02/14 04:21:27;;;;;;;;;;;-4.20;99.90;;;;;;4187568;28;19977;-55
2022/02/14 04:23:28;;;;;;;;;;;-4.20;99.90;;;;;;4187852;28;19961;-55
2022/02/14 04:25:31;;;;;;;;;;;-4.10;99.90;;;;;;4170986;28;19943;-64
2022/02/14 04:27:31;;;;;;;;;;;-4.10;99.90;;;;;;4186694;28;20327;-56
2022/02/14 04:29:32;;;;;;;;;;;-4.00;99.90;;;;;;4172994;28;19916;-52
2022/02/14 04:31:33;;;;;;;;;;;-4.10;99.90;;;;;;4171597;28;19936;-63
2022/02/14 04:33:34;;;;;;;;;;;-4.10;99.90;;;;;;4185105;28;20372;-55
2022/02/14 04:35:35;;;;;;;;;;;-4.20;99.90;;;;;;4189962;28;19970;-54
2022/02/14 04:37:36;;;;;;;;;;;-4.20;99.90;;;;;;4191146;28;19916;-65
2022/02/14 04:39:37;;;;;;;;;;;-4.20;99.90;;;;;;4181853;28;20132;-55
2022/02/14 04:41:38;;;;;;;;;;;-4.20;99.90;;;;;;4171348;28;19913;-54
2022/02/14 04:43:39;;;;;;;;;;;-4.20;99.90;;;;;;4191176;28;19955;-56
2022/02/14 04:45:40;;;;;;;;;;;-4.30;99.90;;;;;;4185874;28;20019;-52
2022/02/14 04:47:41;;;;;;;;;;;-4.30;99.90;;;;;;4174907;28;19931;-53
2022/02/14 04:49:44;;;;;;;;;;;-4.20;99.90;;;;;;4174396;28;20012;-54
2022/02/14 04:51:45;;;;;;;;;;;-4.20;99.90;;;;;;4175595;28;19963;-54
2022/02/14 04:53:46;;;;;;;;;;;-4.20;99.90;;;;;;4186639;28;19916;-52
2022/02/14 04:55:47;;;;;;;;;;;-4.20;99.90;;;;;;4191121;28;20462;-55
2022/02/14 04:57:48;;;;;;;;;;;-4.20;99.90;;;;;;4190965;28;19912;-62
2022/02/14 04:59:48;;;;;;;;;;;-4.30;99.90;;;;;;4191271;28;20707;-56
2022/02/14 05:01:49;;;;;;;;;;;-4.30;99.90;;;;;;4190536;28;19983;-54
2022/02/14 05:03:51;;;;;;;;;;;-4.30;99.90;;;;;;4190922;28;19916;-59
2022/02/14 05:05:52;;;;;;;;;;;-4.30;99.90;;;;;;4190971;28;19913;-57
2022/02/14 05:07:52;;;;;;;;;;;-4.30;99.90;;;;;;4172890;28;20019;-54
2022/02/14 05:09:53;;;;;;;;;;;-4.30;99.90;;;;;;4179310;28;20329;-56
2022/02/14 05:11:54;;;;;;;;;;;-4.30;99.90;;;;;;4174228;28;19971;-58
2022/02/14 05:13:55;;;;;;;;;;;-4.30;99.90;;;;;;4173971;28;19909;-58
2022/02/14 05:15:56;;;;;;;;;;;-4.30;99.90;;;;;;4175209;28;19924;-55
2022/02/14 05:17:57;;;;;;;;;;;-4.30;99.90;;;;;;4174250;28;20752;-58
2022/02/14 05:19:58;;;;;;;;;;;-4.20;99.90;;;;;;4176976;28;19916;-50
2022/02/14 05:21:59;;;;;;;;;;;-4.30;99.90;;;;;;4182908;28;19916;-68
2022/02/14 05:24:00;;;;;;;;;;;-4.20;99.90;;;;;;4190123;28;20373;-57
2022/02/14 05:26:01;;;;;;;;;;;-4.20;99.90;;;;;;4190073;28;20357;-57
2022/02/14 05:28:05;;;;;;;;;;;-4.30;99.90;;;;;;4189925;28;19931;-53
2022/02/14 05:30:07;;;;;;;;;;;-4.30;99.90;;;;;;4188398;28;19918;-54
2022/02/14 05:32:08;;;;;;;;;;;-4.30;99.90;;;;;;4187562;28;20418;-64
2022/02/14 05:34:09;;;;;;;;;;;-4.30;99.90;;;;;;4188385;28;19916;-55
2022/02/14 05:36:09;;;;;;;;;;;-4.20;99.90;;;;;;4180969;28;20005;-58
2022/02/14 05:38:11;;;;;;;;;;;-4.10;99.90;;;;;;4188640;28;19971;-57
2022/02/14 05:40:12;;;;;;;;;;;-4.20;99.90;;;;;;4190457;28;19920;-55
2022/02/14 05:42:13;;;;;;;;;;;-4.20;99.90;;;;;;4189529;28;20418;-54
2022/02/14 05:44:14;;;;;;;;;;;-4.10;99.90;;;;;;4185251;28;20755;-61
2022/02/14 05:46:15;;;;;;;;;;;-4.10;99.90;;;;;;4173598;28;19912;-54
2022/02/14 05:48:16;;;;;;;;;;;-4.10;99.90;;;;;;4173589;28;19982;-74
2022/02/14 05:50:17;;;;;;;;;;;-4.00;99.90;;;;;;4154533;28;19920;-62
2022/02/14 05:52:18;;;;;;;;;;;-4.00;99.90;;;;;;4174152;28;19912;-62
2022/02/14 05:54:19;;;;;;;;;;;-4.00;99.90;;;;;;4173515;28;19958;-55
2022/02/14 05:56:20;;;;;;;;;;;-4.00;99.90;;;;;;4173766;28;19913;-59
2022/02/14 05:58:21;;;;;;;;;;;-3.80;99.90;;;;;;4172461;28;20662;-67
2022/02/14 06:00:22;;;;;;;;;;;-3.70;99.90;;;;;;4173798;28;19917;-69
2022/02/14 06:02:23;;;;;;;;;;;-3.50;99.90;;;;;;4172960;28;19912;-62
2022/02/14 06:04:23;;;;;;;;;;;-3.30;99.90;;;;;;4173533;28;19909;-65
2022/02/14 06:06:25;;;;;;;;;;;-3.10;99.90;;;;;;4173387;28;20075;-64
2022/02/14 06:08:26;;;;;;;;;;;-3.00;99.90;;;;;;4173298;28;19913;-59
2022/02/14 06:10:27;;;;;;;;;;;-3.00;99.90;;;;;;4172809;28;19967;-64
2022/02/14 06:12:29;;;;;;;;;;;-3.00;99.90;;;;;;4173088;28;19912;-66
2022/02/14 06:14:31;;;;;;;;;;;-2.90;99.90;;;;;;4173310;28;20418;-59
2022/02/14 06:16:32;;;;;;;;;;;-2.80;99.90;;;;;;4173137;28;20254;-59
2022/02/14 06:18:33;;;;;;;;;;;-2.80;99.90;;;;;;4173861;28;20024;-59
2022/02/14 06:20:34;;;;;;;;;;;-2.70;99.90;;;;;;4180906;28;19920;-56
2022/02/14 06:22:35;;;;;;;;;;;-2.60;99.90;;;;;;4190824;28;19922;-60
2022/02/14 06:24:36;;;;;;;;;;;-2.50;99.90;;;;;;4188650;28;19908;-56
2022/02/14 06:26:37;;;;;;;;;;;-2.50;99.90;;;;;;4189879;28;19919;-60
2022/02/14 06:28:38;;;;;;;;;;;-2.40;99.90;;;;;;4187371;28;19916;-61
2022/02/14 06:30:40;;;;;;;;;;;-2.30;99.90;;;;;;4189773;28;19916;-57
2022/02/14 06:32:41;;;;;;;;;;;-2.00;99.90;;;;;;4189053;28;19912;-58
2022/02/14 06:34:42;;;;;;;;;;;-2.00;99.90;;;;;;4189602;28;20034;-58
2022/02/14 06:36:43;;;;;;;;;;;-2.00;99.90;;;;;;4189305;28;19938;-56
2022/02/14 06:38:44;;;;;;;;;;;-2.00;99.90;;;;;;4188949;28;19962;-57
2022/02/14 06:40:45;;;;;;;;;;;-1.80;99.90;;;;;;4188982;28;19912;-61
2022/02/14 06:42:47;;;;;;;;;;;-1.70;99.90;;;;;;4188892;28;19973;-55
2022/02/14 06:44:48;;;;;;;;;;;-1.50;99.90;;;;;;4189209;28;19912;-61
2022/02/14 06:46:50;;;;;;;;;;;-1.50;99.90;;;;;;4189030;28;19919;-58
2022/02/14 06:48:51;;;;;;;;;;;-1.50;99.90;;;;;;4189128;28;19912;-59
2022/02/14 06:50:52;;;;;;;;;;;-1.50;99.90;;;;;;4189078;28;19912;-58
2022/02/14 06:52:53;;;;;;;;;;;-1.40;99.90;;;;;;4189787;28;19977;-55
2022/02/14 06:54:54;;;;;;;;;;;-1.20;99.90;;;;;;4188648;28;20353;-64
2022/02/14 06:56:55;;;;;;;;;;;-0.70;99.90;;;;;;4189473;28;19912;-57
2022/02/14 06:58:56;;;;;;;;;;;-0.40;99.90;;;;;;4187888;28;19921;-55
2022/02/14 07:00:58;;;;;;;;;;;-0.10;99.90;;;;;;4189459;28;19950;-65
2022/02/14 07:02:59;;;;;;;;;;;0.30;99.90;;;;;;4189321;28;20307;-64
2022/02/14 07:05:00;;;;;;;;;;;0.70;99.90;;;;;;4189205;28;19919;-60
2022/02/14 07:07:01;;;;;;;;;;;1.10;99.90;;;;;;4188420;28;19917;-59
2022/02/14 07:09:03;;;;;;;;;;;1.40;99.90;;;;;;4188676;28;20292;-57
2022/02/14 07:11:04;;;;;;;;;;;1.70;99.90;;;;;;4187444;28;20088;-57
2022/02/14 07:13:05;;;;;;;;;;;2.00;99.90;;;;;;4188806;28;19919;-58
2022/02/14 07:15:09;;;;;;;;;;;2.10;99.90;;;;;;4189151;28;19912;-59
2022/02/14 07:17:11;;;;;;;;;;;2.20;99.90;;;;;;4188402;28;19958;-63
2022/02/14 07:19:12;;;;;;;;;;;2.40;99.90;;;;;;4189035;28;19995;-60
2022/02/14 07:21:14;;;;;;;;;;;2.40;99.90;;;;;;4188672;28;20316;-63
2022/02/14 07:23:15;;;;;;;;;;;2.40;99.90;;;;;;4189063;28;19909;-59
2022/02/14 07:25:16;;;;;;;;;;;2.50;99.90;;;;;;4188732;28;20388;-62
2022/02/14 07:27:17;;;;;;;;;;;2.60;99.90;;;;;;4171389;28;19960;-56
2022/02/14 07:29:18;;;;;;;;;;;2.40;99.90;;;;;;4188516;28;19974;-55
2022/02/14 07:31:19;;;;;;;;;;;2.70;99.90;;;;;;4188465;28;19966;-65
2022/02/14 07:33:20;;;;;;;;;;;2.90;99.90;;;;;;4188951;28;19909;-62
2022/02/14 07:35:21;;;;;;;;;;;3.10;99.90;;;;;;4188997;28;20021;-65
2022/02/14 07:37:23;;;;;;;;;;;3.10;99.90;;;;;;4188066;28;19955;-62
2022/02/14 07:39:24;;;;;;;;;;;3.20;99.90;;;;;;4188806;28;20648;-56
2022/02/14 07:41:25;;;;;;;;;;;3.00;99.90;;;;;;4188256;28;19915;-58
2022/02/14 07:43:27;;;;;;;;;;;3.20;99.90;;;;;;4187652;28;20391;-63
2022/02/14 07:45:28;;;;;;;;;;;3.00;99.90;;;;;;4170763;28;19909;-59
2022/02/14 07:47:29;;;;;;;;;;;2.50;99.90;;;;;;4187627;28;19962;-60
2022/02/14 07:49:30;;;;;;;;;;;2.30;99.90;;;;;;4189400;28;20331;-60
2022/02/14 07:51:31;;;;;;;;;;;1.90;99.90;;;;;;4188014;28;20323;-60
2022/02/14 07:53:33;;;;;;;;;;;1.90;99.90;;;;;;4190022;28;19908;-58
2022/02/14 07:55:34;;;;;;;;;;;1.80;99.90;;;;;;4188101;28;19912;-56
2022/02/14 07:57:34;;;;;;;;;;;1.90;99.90;;;;;;4188783;28;20382;-63
2022/02/14 07:59:35;;;;;;;;;;;2.00;99.90;;;;;;4188207;28;20030;-55
2022/02/14 08:01:41;;;;;;;;;;;2.20;99.90;;;;;;4188497;28;21363;-55
2022/02/14 08:03:43;;;;;;;;;;;2.40;99.90;;;;;;4188345;28;20692;-59
2022/02/14 08:05:44;;;;;;;;;;;2.50;99.90;;;;;;4188883;28;19912;-61
2022/02/14 08:07:45;;;;;;;;;;;2.70;99.90;;;;;;4188989;28;19974;-57
2022/02/14 08:09:46;;;;;;;;;;;2.70;99.90;;;;;;4170765;28;19913;-54
2022/02/14 08:11:47;;;;;;;;;;;2.70;99.90;;;;;;4191007;28;20343;-63
2022/02/14 08:13:48;;;;;;;;;;;2.60;99.90;;;;;;4191199;28;19923;-55
2022/02/14 08:15:49;;;;;;;;;;;2.30;99.90;;;;;;4191538;28;19912;-62
2022/02/14 08:17:50;;;;;;;;;;;2.20;99.90;;;;;;4191530;28;19913;-61
2022/02/14 08:19:51;;;;;;;;;;;2.00;99.90;;;;;;4191857;28;19974;-67
2022/02/14 08:21:52;;;;;;;;;;;1.70;99.90;;;;;;4191145;28;20550;-62
2022/02/14 08:23:53;;;;;;;;;;;1.70;99.90;;;;;;4192222;28;19913;-58
2022/02/14 08:25:54;;;;;;;;;;;1.70;99.90;;;;;;4190942;28;19966;-61
2022/02/14 08:27:55;;;;;;;;;;;1.80;99.90;;;;;;4191895;28;20279;-57
2022/02/14 08:29:57;;;;;;;;;;;2.00;99.90;;;;;;4191217;28;19955;-62
2022/02/14 08:31:58;;;;;;;;;;;2.10;99.90;;;;;;4191756;28;20419;-59
2022/02/14 08:33:59;;;;;;;;;;;2.10;99.90;;;;;;4191193;28;19912;-64
2022/02/14 08:36:00;;;;;;;;;;;2.10;99.90;;;;;;4191744;28;19919;-65
2022/02/14 08:38:01;;;;;;;;;;;2.10;99.90;;;;;;4191096;28;20426;-61
2022/02/14 08:40:02;;;;;;;;;;;2.20;99.90;;;;;;4191180;28;20023;-59
2022/02/14 08:42:03;;;;;;;;;;;2.10;99.90;;;;;;4191438;28;19978;-62
2022/02/14 08:44:05;;;;;;;;;;;2.20;99.90;;;;;;4191059;28;19957;-61
2022/02/14 08:46:06;;;;;;;;;;;2.10;99.90;;;;;;4191730;28;20394;-56
2022/02/14 08:48:07;;;;;;;;;;;1.90;99.90;;;;;;4190821;28;19913;-61
2022/02/14 08:50:08;;;;;;;;;;;1.80;99.90;;;;;;4191275;28;19912;-62
2022/02/14 08:52:09;;;;;;;;;;;1.70;99.90;;;;;;4191154;28;19913;-68
2022/02/14 08:54:10;;;;;;;;;;;1.50;99.90;;;;;;4191021;28;20372;-57
2022/02/14 08:56:11;;;;;;;;;;;1.40;99.90;;;;;;4190392;28;20697;-58
2022/02/14 08:58:12;;;;;;;;;;;1.50;99.90;;;;;;4190634;28;19916;-62
2022/02/14 09:00:14;;;;;;;;;;;1.70;99.90;;;;;;4189964;28;19920;-61
2022/02/14 09:02:15;;;;;;;;;;;1.90;99.90;;;;;;4191197;28;19921;-56
2022/02/14 09:04:16;;;;;;;;;;;1.90;99.90;;;;;;4190467;28;19912;-61
2022/02/14 09:06:17;;;;;;;;;;;2.10;99.90;;;;;;4189079;28;19946;-65
2022/02/14 09:08:19;;;;;;;;;;;2.00;99.90;;;;;;4190478;28;19915;-56
2022/02/14 09:10:21;;;;;;;;;;;2.00;99.90;;;;;;4190060;28;19917;-60
2022/02/14 09:12:22;;;;;;;;;;;1.90;99.90;;;;;;4189707;28;19916;-58
2022/02/14 09:14:23;;;;;;;;;;;2.10;99.90;;;;;;4190249;28;20323;-59
2022/02/14 09:16:24;;;;;;;;;;;2.10;99.90;;;;;;4190578;28;19963;-61
2022/02/14 09:18:25;;;;;;;;;;;2.00;99.90;;;;;;4189817;28;19912;-61
2022/02/14 09:20:26;;;;;;;;;;;2.00;99.90;;;;;;4190828;28;19920;-59
2022/02/14 09:22:27;;;;;;;;;;;1.90;99.90;;;;;;4190064;28;19987;-63
2022/02/14 09:24:29;;;;;;;;;;;2.00;99.90;;;;;;4189989;28;19966;-59
2022/02/14 09:26:31;;;;;;;;;;;2.00;99.90;;;;;;4189124;28;19966;-58
2022/02/14 09:28:32;;;;;;;;;;;2.10;99.90;;;;;;4190283;28;20006;-60
2022/02/14 09:30:34;;;;;;;;;;;2.40;99.90;;;;;;4189857;28;19913;-56
2022/02/14 09:32:34;;;;;;;;;;;2.70;99.90;;;;;;4190214;28;19938;-56
2022/02/14 09:34:35;;;;;;;;;;;2.80;99.90;;;;;;4189193;28;19913;-57
2022/02/14 09:36:36;;;;;;;;;;;2.90;99.90;;;;;;4189789;28;19955;-55
2022/02/14 09:38:37;;;;;;;;;;;3.20;99.90;;;;;;4189439;28;19920;-58
2022/02/14 09:40:38;;;;;;;;;;;3.20;99.90;;;;;;4190259;28;19916;-58
2022/02/14 09:42:40;;;;;;;;;;;3.30;99.90;;;;;;4190225;28;19919;-60
2022/02/14 09:44:40;;;;;;;;;;;3.40;99.90;;;;;;4189983;28;19913;-56
2022/02/14 09:46:43;;;;;;;;;;;3.30;99.90;;;;;;4189871;28;19935;-60
2022/02/14 09:48:44;;;;;;;;;;;3.30;99.90;;;;;;4189483;28;19916;-63
2022/02/14 09:50:46;;;;;;;;;;;3.50;99.90;;;;;;4189964;28;20250;-66
2022/02/14 09:52:47;;;;;;;;;;;3.60;99.90;;;;;;4189729;28;19962;-60
2022/02/14 09:54:48;;;;;;;;;;;3.70;99.90;;;;;;4190756;28;19917;-65
2022/02/14 09:56:49;;;;;;;;;;;3.50;99.90;;;;;;4188545;28;19908;-58
2022/02/14 09:58:50;;;;;;;;;;;3.50;99.90;;;;;;4171199;28;19928;-65
2022/02/14 10:00:52;;;;;;;;;;;3.60;99.90;;;;;;4188761;28;19975;-56
2022/02/14 10:03:10;;;;;;;;;;;3.70;99.90;;;;;;4171571;28;19935;-59
2022/02/14 10:05:18;;;;;;;;;;;3.80;99.90;;;;;;4189561;28;19916;-61
2022/02/14 10:07:19;;;;;;;;;;;3.90;99.90;;;;;;4189957;28;19962;-60
2022/02/14 10:09:24;;;;;;;;;;;4.00;99.90;;;;;;4188955;28;19912;-63
2022/02/14 10:11:25;;;;;;;;;;;4.10;99.90;;;;;;4189956;28;19997;-64
2022/02/14 10:13:28;;;;;;;;;;;4.10;99.90;;;;;;4188697;28;19912;-62
2022/02/14 10:15:29;;;;;;;;;;;4.10;99.90;;;;;;4189919;28;20322;-55
2022/02/14 10:17:36;;;;;;;;;;;4.10;99.90;;;;;;4190187;28;19919;-61
2022/02/14 10:19:45;;;;;;;;;;;4.20;99.90;;;;;;4188617;28;19951;-62
2022/02/14 10:21:46;;;;;;;;;;;4.20;99.90;;;;;;4189564;28;19908;-57
2022/02/14 10:24:04;;;;;;;;;;;4.40;99.90;;;;;;4190183;28;19928;-58
2022/02/14 10:26:05;;;;;;;;;;;4.50;99.90;;;;;;4189127;28;20787;-61
2022/02/14 10:28:12;;;;;;;;;;;4.50;99.90;;;;;;4189137;28;19966;-61
2022/02/14 10:30:13;;;;;;;;;;;4.50;99.90;;;;;;4189273;28;19921;-62
2022/02/14 10:32:16;;;;;;;;;;;4.50;99.90;;;;;;4188135;28;19916;-64
2022/02/14 10:34:18;;;;;;;;;;;4.50;99.90;;;;;;4188835;28;19920;-66
2022/02/14 10:36:30;;;;;;;;;;;4.40;99.90;;;;;;4189060;28;19908;-67
2022/02/14 10:38:36;;;;;;;;;;;4.40;99.90;;;;;;4189557;28;19931;-55
2022/02/14 10:40:39;;;;;;;;;;;4.50;99.90;;;;;;4189142;28;19917;-62
2022/02/14 10:42:40;;;;;;;;;;;4.60;99.90;;;;;;4188976;28;19954;-60
2022/02/14 10:47:05;;;;;;;;;;;4.60;99.90;;;;;;4189714;28;19966;-60
2022/02/14 10:49:07;;;;;;;;;;;4.60;99.90;;;;;;4188646;28;19939;-60
2022/02/14 10:51:08;;;;;;;;;;;4.60;99.90;;;;;;4189682;28;20010;-60
2022/02/14 10:53:15;;;;;;;;;;;4.70;99.90;;;;;;4188967;28;19908;-52
2022/02/14 10:55:42;;;;;;;;;;;4.70;99.60;;;;;;4188836;28;19982;-62
2022/02/14 10:57:44;;;;;;;;;;;4.60;99.40;;;;;;4188684;28;20414;-61
2022/02/14 10:59:57;;;;;;;;;;;4.60;99.60;;;;;;4189200;28;20291;-59
2022/02/14 11:01:58;;;;;;;;;;;4.70;99.90;;;;;;4188787;28;20440;-60
2022/02/14 11:03:59;;;;;;;;;;;4.80;99.70;;;;;;4188594;28;19913;-58
2022/02/14 11:06:00;;;;;;;;;;;4.80;99.60;;;;;;4188376;28;19912;-60
2022/02/14 11:08:01;;;;;;;;;;;4.80;99.60;;;;;;4189117;28;19958;-59
2022/02/14 11:10:03;;;;;;;;;;;4.80;99.50;;;;;;4188108;28;20257;-61
2022/02/14 11:12:04;;;;;;;;;;;4.80;99.00;;;;;;4189129;28;20327;-59
2022/02/14 11:14:05;;;;;;;;;;;4.80;99.20;;;;;;4188503;28;19908;-60
2022/02/14 11:16:08;;;;;;;;;;;4.80;99.00;;;;;;4188691;28;19912;-62
2022/02/14 11:18:13;;;;;;;;;;;4.80;99.10;;;;;;4188507;28;20430;-60
2022/02/14 11:20:15;;;;;;;;;;;4.80;99.00;;;;;;4188498;28;20028;-59
2022/02/14 11:22:16;;;;;;;;;;;4.90;99.40;;;;;;4188195;28;19958;-65
2022/02/14 11:24:22;;;;;;;;;;;4.90;99.30;;;;;;4189005;28;20327;-65
2022/02/14 11:26:23;;;;;;;;;;;5.00;99.40;;;;;;4188188;28;20433;-66
2022/02/14 11:28:41;;;;;;;;;;;5.00;99.20;;;;;;4188524;28;19924;-61
2022/02/14 11:31:02;;;;;;;;;;;5.10;98.80;;;;;;4188979;28;19912;-61
2022/02/14 11:33:13;;;;;;;;;;;5.00;98.20;;;;;;4170363;28;19909;-56
2022/02/14 11:35:20;;;;;;;;;;;5.10;99.00;;;;;;4188232;28;19912;-65
2022/02/14 11:37:21;;;;;;;;;;;5.10;98.30;;;;;;4189090;28;20073;-62
2022/02/14 11:39:29;;;;;;;;;;;5.10;98.50;;;;;;4187525;28;19913;-60
2022/02/14 11:41:32;;;;;;;;;;;5.10;98.50;;;;;;4188570;28;19970;-59
2022/02/14 11:43:40;;;;;;;;;;;5.20;98.50;;;;;;4188112;28;20725;-65
2022/02/14 11:45:41;;;;;;;;;;;5.20;98.10;;;;;;4191535;28;19917;-59
2022/02/14 11:47:42;;;;;;;;;;;5.30;98.20;;;;;;4191944;28;19912;-59
2022/02/14 11:49:45;;;;;;;;;;;5.40;98.30;;;;;;4191366;28;20002;-55
2022/02/14 11:51:50;;;;;;;;;;;5.30;97.70;;;;;;4192104;28;19916;-63
2022/02/14 11:53:52;;;;;;;;;;;5.20;97.80;;;;;;4191924;28;20765;-60
2022/02/14 11:55:53;;;;;;;;;;;5.30;97.60;;;;;;4192086;28;19916;-61